createdAt,value
2023-09-04T00:00:51.946Z,16.67
2023-09-04T00:03:04.295Z,16.67
2023-09-04T00:04:59.552Z,16.72
2023-09-04T00:06:55.123Z,16.76
2023-09-04T00:08:50.414Z,16.76
2023-09-04T00:10:45.671Z,16.78
2023-09-04T00:12:41.267Z,16.77
2023-09-04T00:14:34.263Z,16.76
2023-09-04T00:16:30.022Z,16.74
2023-09-04T00:18:26.550Z,16.77
2023-09-04T00:20:19.582Z,16.76
2023-09-04T00:22:18.887Z,16.78
2023-09-04T00:24:14.118Z,16.81
2023-09-04T00:26:13.410Z,16.80
2023-09-04T00:28:09.499Z,16.70
2023-09-04T00:30:02.184Z,16.73
2023-09-04T00:31:57.677Z,16.66
2023-09-04T00:33:53.059Z,16.61
2023-09-04T00:35:46.226Z,16.57
2023-09-04T00:37:44.681Z,16.55
2023-09-04T00:39:39.909Z,16.57
2023-09-04T00:41:35.299Z,16.60
2023-09-04T00:43:38.543Z,16.56
2023-09-04T00:45:34.096Z,16.57
2023-09-04T00:47:26.578Z,16.57
2023-09-04T00:49:22.217Z,16.53
2023-09-04T00:51:15.336Z,16.52
2023-09-04T00:53:14.814Z,16.53
2023-09-04T00:55:10.725Z,16.53
2023-09-04T00:57:06.606Z,16.52
2023-09-04T00:59:01.812Z,16.44
2023-09-04T01:00:55.171Z,16.40
2023-09-04T01:02:51.077Z,16.33
2023-09-04T01:04:46.339Z,16.32
2023-09-04T01:06:41.760Z,16.25
2023-09-04T01:08:40.016Z,16.29
2023-09-04T01:10:40.276Z,16.31
2023-09-04T01:12:43.503Z,16.33
2023-09-04T01:14:40.448Z,16.31
2023-09-04T01:16:36.070Z,16.27
2023-09-04T01:18:33.062Z,16.25
2023-09-04T01:20:33.336Z,16.24
2023-09-04T01:22:26.899Z,16.23
2023-09-04T01:24:21.944Z,16.21
2023-09-04T01:26:22.704Z,16.23
2023-09-04T01:28:23.711Z,16.22
2023-09-04T01:30:26.580Z,16.15
2023-09-04T01:32:33.753Z,16.11
2023-09-04T01:34:33.805Z,16.11
2023-09-04T01:36:30.986Z,16.11
2023-09-04T01:38:26.831Z,16.10
2023-09-04T01:40:22.833Z,16.06
2023-09-04T01:42:18.191Z,16.04
2023-09-04T01:44:14.435Z,15.97
2023-09-04T01:46:07.319Z,15.89
2023-09-04T01:48:02.464Z,15.82
2023-09-04T01:49:57.556Z,15.83
2023-09-04T01:51:59.370Z,15.87
2023-09-04T01:53:54.466Z,15.86
2023-09-04T01:55:47.013Z,15.83
2023-09-04T01:57:42.457Z,15.82
2023-09-04T01:59:35.579Z,15.84
2023-09-04T02:01:32.491Z,15.83
2023-09-04T02:03:28.653Z,15.81
2023-09-04T02:05:21.428Z,15.78
2023-09-04T02:07:19.247Z,15.81
2023-09-04T02:09:14.883Z,15.83
2023-09-04T02:11:10.217Z,15.81
2023-09-04T02:13:03.890Z,15.78
2023-09-04T02:14:59.436Z,15.72
2023-09-04T02:16:54.909Z,15.72
2023-09-04T02:18:52.357Z,15.68
2023-09-04T02:20:49.467Z,15.72
2023-09-04T02:22:48.095Z,15.73
2023-09-04T02:24:43.098Z,15.69
2023-09-04T02:26:40.102Z,15.67
2023-09-04T02:28:39.163Z,15.64
2023-09-04T02:30:36.490Z,15.65
2023-09-04T02:32:29.676Z,15.62
2023-09-04T02:34:25.325Z,15.62
2023-09-04T02:36:22.238Z,15.63
2023-09-04T02:38:21.967Z,15.59
2023-09-04T02:40:15.094Z,15.52
2023-09-04T02:42:11.619Z,15.47
2023-09-04T02:44:09.257Z,15.42
2023-09-04T02:46:04.898Z,15.43
2023-09-04T02:48:00.886Z,15.43
2023-09-04T02:49:58.587Z,15.44
2023-09-04T02:51:58.899Z,15.43
2023-09-04T02:54:01.816Z,15.40
2023-09-04T02:55:59.373Z,15.32
2023-09-04T02:57:51.869Z,15.35
2023-09-04T02:59:48.102Z,15.35
2023-09-04T03:01:43.552Z,15.32
2023-09-04T03:03:38.679Z,15.31
2023-09-04T03:05:33.756Z,15.32
2023-09-04T03:07:29.690Z,15.29
2023-09-04T03:09:28.955Z,15.29
2023-09-04T03:11:24.890Z,15.26
2023-09-04T03:13:21.043Z,15.25
2023-09-04T03:15:13.709Z,15.27
2023-09-04T03:17:09.233Z,15.30
2023-09-04T03:19:05.004Z,15.30
2023-09-04T03:21:00.058Z,15.29
2023-09-04T03:22:55.761Z,15.27
2023-09-04T03:24:52.946Z,15.22
2023-09-04T03:26:48.636Z,15.22
2023-09-04T03:28:45.516Z,15.22
2023-09-04T03:30:38.754Z,15.24
2023-09-04T03:32:36.321Z,15.25
2023-09-04T03:34:33.169Z,15.23
2023-09-04T03:36:31.107Z,15.20
2023-09-04T03:38:30.079Z,15.20
2023-09-04T03:40:30.440Z,15.19
2023-09-04T03:42:24.081Z,15.20
2023-09-04T03:44:19.446Z,15.23
2023-09-04T03:46:16.588Z,15.27
2023-09-04T03:48:12.154Z,15.28
2023-09-04T03:50:08.875Z,15.25
2023-09-04T03:52:04.565Z,15.26
2023-09-04T03:54:03.759Z,15.26
2023-09-04T03:56:08.799Z,15.24
2023-09-04T03:58:04.562Z,15.24
2023-09-04T03:59:57.824Z,15.25
2023-09-04T04:01:53.194Z,15.26
2023-09-04T04:03:48.843Z,15.28
2023-09-04T04:05:44.661Z,15.29
2023-09-04T04:07:40.080Z,15.29
2023-09-04T04:09:35.479Z,15.30
2023-09-04T04:11:34.775Z,15.31
2023-09-04T04:13:30.142Z,15.32
2023-09-04T04:15:25.644Z,15.31
2023-09-04T04:17:18.768Z,15.30
2023-09-04T04:19:14.240Z,15.31
2023-09-04T04:21:07.192Z,15.32
2023-09-04T04:23:02.950Z,15.30
2023-09-04T04:24:58.381Z,15.31
2023-09-04T04:26:56.365Z,15.29
2023-09-04T04:28:52.057Z,15.28
2023-09-04T04:30:47.584Z,15.26
2023-09-04T04:32:43.091Z,15.25
2023-09-04T04:34:38.877Z,15.23
2023-09-04T04:36:34.281Z,15.21
2023-09-04T04:38:29.656Z,15.19
2023-09-04T04:40:26.193Z,15.20
2023-09-04T04:42:23.884Z,15.21
2023-09-04T04:44:19.160Z,15.18
2023-09-04T04:46:16.593Z,15.15
2023-09-04T04:48:11.920Z,15.16
2023-09-04T04:50:05.741Z,15.16
2023-09-04T04:52:00.814Z,15.17
2023-09-04T04:53:55.967Z,15.15
2023-09-04T04:55:48.825Z,15.14
2023-09-04T04:57:46.617Z,15.15
2023-09-04T04:59:41.682Z,15.14
2023-09-04T05:01:37.224Z,15.12
2023-09-04T05:03:32.455Z,15.11
2023-09-04T05:05:28.122Z,15.06
2023-09-04T05:07:23.383Z,15.05
2023-09-04T05:09:18.524Z,15.08
2023-09-04T05:11:14.008Z,15.09
2023-09-04T05:13:09.204Z,15.08
2023-09-04T05:15:05.458Z,15.07
2023-09-04T05:17:00.924Z,15.05
2023-09-04T05:18:56.659Z,15.04
2023-09-04T05:20:52.447Z,14.99
2023-09-04T05:22:47.546Z,14.98
2023-09-04T05:24:42.640Z,15.01
2023-09-04T05:26:38.112Z,15.01
2023-09-04T05:28:33.896Z,15.01
2023-09-04T05:30:29.424Z,15.00
2023-09-04T05:32:24.970Z,15.01
2023-09-04T05:34:17.538Z,15.02
2023-09-04T05:36:13.025Z,15.00
2023-09-04T05:38:08.721Z,14.92
2023-09-04T05:40:06.252Z,14.86
2023-09-04T05:42:01.328Z,14.85
2023-09-04T05:43:59.033Z,14.83
2023-09-04T05:45:51.854Z,14.83
2023-09-04T05:47:47.626Z,14.82
2023-09-04T05:49:42.723Z,14.81
2023-09-04T05:51:38.156Z,14.83
2023-09-04T05:53:33.723Z,14.88
2023-09-04T05:55:28.918Z,14.90
2023-09-04T05:57:24.359Z,14.90
2023-09-04T05:59:19.417Z,14.87
2023-09-04T06:01:17.146Z,14.92
2023-09-04T06:03:13.002Z,14.91
2023-09-04T06:05:09.097Z,14.91
2023-09-04T06:07:05.663Z,14.92
2023-09-04T06:09:00.926Z,14.94
2023-09-04T06:10:56.007Z,14.96
2023-09-04T06:12:51.394Z,14.97
2023-09-04T06:14:50.686Z,15.01
2023-09-04T06:16:48.243Z,15.04
2023-09-04T06:18:43.308Z,15.07
2023-09-04T06:20:38.366Z,15.07
2023-09-04T06:22:33.831Z,15.13
2023-09-04T06:24:29.005Z,15.16
2023-09-04T06:26:24.425Z,15.21
2023-09-04T06:28:19.741Z,15.24
2023-09-04T06:30:17.655Z,15.29
2023-09-04T06:32:15.964Z,15.28
2023-09-04T06:34:11.201Z,15.30
2023-09-04T06:36:07.071Z,15.36
2023-09-04T06:38:00.467Z,15.38
2023-09-04T06:39:55.938Z,15.37
2023-09-04T06:41:51.167Z,15.42
2023-09-04T06:43:43.973Z,15.48
2023-09-04T06:45:41.756Z,15.54
2023-09-04T06:47:36.884Z,15.59
2023-09-04T06:49:32.307Z,15.59
2023-09-04T06:51:30.478Z,15.62
2023-09-04T06:53:26.094Z,15.65
2023-09-04T06:55:19.084Z,15.64
2023-09-04T06:57:14.184Z,15.74
2023-09-04T06:59:09.418Z,15.80
2023-09-04T07:01:08.831Z,15.82
2023-09-04T07:03:01.430Z,15.84
2023-09-04T07:04:57.713Z,15.83
2023-09-04T07:06:53.137Z,15.90
2023-09-04T07:08:45.670Z,15.93
2023-09-04T07:10:40.948Z,16.00
2023-09-04T07:12:38.727Z,16.01
2023-09-04T07:14:34.024Z,16.07
2023-09-04T07:16:42.259Z,16.06
2023-09-04T07:18:45.852Z,16.14
2023-09-04T07:20:38.298Z,16.27
2023-09-04T07:22:33.410Z,16.27
2023-09-04T07:24:28.758Z,16.44
2023-09-04T07:26:23.816Z,16.47
2023-09-04T07:28:20.351Z,16.44
2023-09-04T07:30:16.407Z,16.50
2023-09-04T07:32:11.546Z,16.49
2023-09-04T07:34:07.143Z,16.54
2023-09-04T07:36:02.705Z,16.54
2023-09-04T07:37:57.898Z,16.63
2023-09-04T07:39:55.595Z,16.62
2023-09-04T07:41:50.651Z,16.70
2023-09-04T07:43:45.705Z,16.76
2023-09-04T07:45:41.174Z,16.90
2023-09-04T07:47:41.773Z,16.94
2023-09-04T07:49:37.192Z,16.97
2023-09-04T07:51:35.647Z,17.04
2023-09-04T07:53:31.267Z,17.02
2023-09-04T07:55:26.680Z,17.05
2023-09-04T07:57:19.181Z,17.15
2023-09-04T07:59:14.593Z,17.19
2023-09-04T08:01:15.492Z,17.21
2023-09-04T08:03:13.327Z,17.21
2023-09-04T08:05:09.744Z,17.34
2023-09-04T08:07:04.899Z,17.37
2023-09-04T08:09:00.583Z,17.34
2023-09-04T08:10:55.612Z,17.40
2023-09-04T08:12:50.609Z,17.55
2023-09-04T08:14:47.597Z,17.60
2023-09-04T08:16:40.058Z,17.65
2023-09-04T08:18:37.794Z,17.68
2023-09-04T08:20:33.297Z,17.70
2023-09-04T08:22:28.371Z,17.73
2023-09-04T08:24:23.552Z,17.78
2023-09-04T08:26:19.446Z,17.87
2023-09-04T08:28:12.033Z,17.84
2023-09-04T08:30:08.152Z,17.87
2023-09-04T08:32:03.895Z,18.00
2023-09-04T08:34:01.872Z,18.02
2023-09-04T08:35:57.352Z,18.04
2023-09-04T08:37:52.635Z,18.04
2023-09-04T08:39:47.840Z,18.10
2023-09-04T08:41:45.387Z,18.23
2023-09-04T08:43:39.217Z,18.19
2023-09-04T08:45:35.907Z,18.23
2023-09-04T08:50:21.277Z,18.46
2023-09-04T08:52:17.734Z,18.53
2023-09-04T08:54:13.088Z,18.60
2023-09-04T08:56:09.257Z,18.56
2023-09-04T08:58:05.120Z,18.60
2023-09-04T09:00:00.276Z,18.73
2023-09-04T09:01:57.594Z,19.12
2023-09-04T09:03:53.211Z,19.00
2023-09-04T09:05:57.343Z,19.19
2023-09-04T09:07:54.060Z,19.12
2023-09-04T09:09:53.798Z,18.93
2023-09-04T09:11:55.226Z,19.20
2023-09-04T09:13:50.423Z,19.28
2023-09-04T09:15:46.401Z,19.33
2023-09-04T09:17:54.594Z,19.52
2023-09-04T09:19:50.499Z,19.21
2023-09-04T09:21:48.587Z,19.33
2023-09-04T09:23:41.166Z,19.83
2023-09-04T09:25:37.486Z,20.08
2023-09-04T09:27:34.441Z,20.10
2023-09-04T09:29:27.049Z,20.10
2023-09-04T09:31:25.593Z,20.06
2023-09-04T09:33:25.352Z,20.06
2023-09-04T09:35:18.261Z,20.06
2023-09-04T09:37:16.436Z,19.86
2023-09-04T09:39:12.490Z,20.14
2023-09-04T09:41:05.264Z,19.90
2023-09-04T09:43:02.824Z,19.69
2023-09-04T09:44:58.543Z,19.89
2023-09-04T09:46:56.154Z,20.19
2023-09-04T09:48:49.059Z,20.38
2023-09-04T09:50:45.221Z,20.53
2023-09-04T09:52:59.675Z,20.76
2023-09-04T09:54:55.137Z,20.76
2023-09-04T09:56:51.140Z,21.07
2023-09-04T09:58:47.487Z,20.66
2023-09-04T10:00:44.275Z,20.70
2023-09-04T10:02:40.148Z,20.69
2023-09-04T10:04:35.983Z,20.86
2023-09-04T10:06:36.443Z,21.32
2023-09-04T10:08:38.003Z,21.40
2023-09-04T10:10:40.106Z,21.47
2023-09-04T10:12:36.842Z,21.30
2023-09-04T10:14:36.675Z,21.34
2023-09-04T10:16:36.809Z,21.55
2023-09-04T10:18:31.511Z,21.80
2023-09-04T10:20:29.320Z,22.12
2023-09-04T10:22:28.662Z,22.14
2023-09-04T10:24:34.370Z,21.65
2023-09-04T10:26:37.276Z,21.83
2023-09-04T10:28:43.865Z,21.14
2023-09-04T10:30:44.479Z,21.13
2023-09-04T10:32:40.909Z,21.29
2023-09-04T10:34:34.063Z,21.38
2023-09-04T10:36:30.140Z,21.57
2023-09-04T10:38:26.467Z,21.98
2023-09-04T10:40:25.873Z,22.22
2023-09-04T10:42:21.728Z,22.40
2023-09-04T10:44:47.864Z,22.64
2023-09-04T10:46:58.676Z,22.82
2023-09-04T10:48:56.210Z,23.04
2023-09-04T10:50:49.304Z,23.26
2023-09-04T10:52:45.481Z,23.38
2023-09-04T10:54:41.326Z,23.41
2023-09-04T10:57:00.299Z,23.65
2023-09-04T10:59:06.066Z,23.84
2023-09-04T11:01:01.543Z,23.94
2023-09-04T11:02:57.963Z,24.18
2023-09-04T11:04:54.420Z,24.28
2023-09-04T11:07:22.291Z,24.89
2023-09-04T11:09:19.750Z,24.62
2023-09-04T11:11:12.608Z,24.70
2023-09-04T11:13:13.425Z,24.36
2023-09-04T11:15:14.740Z,25.01
2023-09-04T11:17:11.412Z,25.15
2023-09-04T11:19:06.930Z,25.29
2023-09-04T11:21:04.443Z,25.70
2023-09-04T11:22:58.021Z,25.73
2023-09-04T11:24:54.654Z,25.79
2023-09-04T11:26:47.149Z,25.94
2023-09-04T11:28:46.091Z,26.32
2023-09-04T11:30:41.890Z,26.81
2023-09-04T11:32:40.440Z,26.64
2023-09-04T11:34:36.531Z,26.48
2023-09-04T11:36:31.660Z,26.68
2023-09-04T11:38:25.202Z,26.58
2023-09-04T11:40:20.753Z,26.82
2023-09-04T11:42:15.822Z,27.35
2023-09-04T11:44:13.489Z,27.40
2023-09-04T11:46:09.018Z,26.86
2023-09-04T11:48:01.784Z,27.21
2023-09-04T11:49:56.948Z,27.85
2023-09-04T11:51:52.776Z,28.40
2023-09-04T11:53:49.589Z,27.57
2023-09-04T11:55:42.554Z,27.27
2023-09-04T11:57:37.662Z,26.71
2023-09-04T11:59:36.208Z,27.31
2023-09-04T12:01:31.842Z,27.98
2023-09-04T12:03:24.920Z,28.43
2023-09-04T12:05:21.311Z,28.76
2023-09-04T12:07:20.136Z,27.75
2023-09-04T12:09:13.310Z,28.33
2023-09-04T12:11:08.904Z,28.73
2023-09-04T12:13:04.107Z,28.91
2023-09-04T12:15:03.638Z,29.04
2023-09-04T12:16:56.251Z,29.19
2023-09-04T12:18:52.679Z,29.81
2023-09-04T12:22:46.460Z,29.93
2023-09-04T12:24:41.689Z,29.24
2023-09-04T12:26:34.497Z,28.99
2023-09-04T12:28:29.682Z,27.89
2023-09-04T12:30:28.680Z,29.16
2023-09-04T12:32:24.761Z,29.29
2023-09-04T12:34:20.037Z,29.71
2023-09-04T12:36:14.670Z,29.98
2023-09-04T12:38:11.716Z,30.39
2023-09-04T12:40:05.014Z,30.01
2023-09-04T12:42:01.802Z,29.92
2023-09-04T12:43:59.107Z,30.22
2023-09-04T12:45:54.434Z,30.43
2023-09-04T12:47:49.887Z,30.71
2023-09-04T12:49:44.937Z,30.69
2023-09-04T12:51:40.299Z,30.53
2023-09-04T12:53:36.014Z,30.86
2023-09-04T12:55:28.570Z,30.67
2023-09-04T12:57:23.660Z,29.83
2023-09-04T12:59:19.043Z,29.98
2023-09-04T13:01:17.041Z,30.56
2023-09-04T13:03:14.785Z,31.17
2023-09-04T13:05:11.121Z,31.03
2023-09-04T13:07:06.581Z,30.32
2023-09-04T13:08:59.613Z,31.12
2023-09-04T13:10:54.873Z,30.60
2023-09-04T13:12:50.216Z,31.23
2023-09-04T13:14:46.682Z,30.71
2023-09-04T13:16:44.426Z,31.17
2023-09-04T13:18:39.991Z,31.20
2023-09-04T13:20:36.412Z,30.67
2023-09-04T13:22:31.962Z,30.85
2023-09-04T13:24:27.156Z,31.28
2023-09-04T13:26:22.455Z,31.62
2023-09-04T13:28:15.296Z,31.75
2023-09-04T13:30:11.825Z,31.78
2023-09-04T13:32:12.309Z,30.26
2023-09-04T13:34:04.909Z,30.66
2023-09-04T13:36:00.152Z,31.18
2023-09-04T13:37:55.550Z,30.79
2023-09-04T13:39:50.661Z,31.44
2023-09-04T13:41:45.747Z,31.52
2023-09-04T13:43:43.910Z,30.84
2023-09-04T13:45:38.986Z,31.57
2023-09-04T13:47:37.069Z,31.50
2023-09-04T13:49:32.333Z,31.78
2023-09-04T13:51:27.417Z,32.35
2023-09-04T13:53:23.089Z,32.71
2023-09-04T13:55:19.919Z,32.96
2023-09-04T13:57:12.865Z,32.48
2023-09-04T13:59:08.698Z,32.39
2023-09-04T14:01:04.389Z,30.81
2023-09-04T14:03:02.177Z,31.88
2023-09-04T14:04:57.676Z,32.46
2023-09-04T14:06:50.760Z,32.74
2023-09-04T14:08:45.881Z,32.21
2023-09-04T14:10:40.406Z,33.07
2023-09-04T14:12:35.675Z,33.59
2023-09-04T14:14:28.257Z,33.95
2023-09-04T14:16:23.770Z,34.22
2023-09-04T14:18:21.421Z,34.46
2023-09-04T14:20:16.816Z,34.78
2023-09-04T14:22:12.265Z,35.05
2023-09-04T14:24:05.288Z,35.31
2023-09-04T14:26:00.699Z,35.03
2023-09-04T14:27:56.195Z,35.22
2023-09-04T14:29:48.725Z,35.09
2023-09-04T14:31:44.045Z,35.54
2023-09-04T14:33:42.127Z,35.19
2023-09-04T14:35:37.329Z,35.16
2023-09-04T14:37:32.608Z,34.42
2023-09-04T14:39:25.676Z,34.36
2023-09-04T14:41:27.072Z,35.03
2023-09-04T14:43:22.182Z,35.34
2023-09-04T14:45:17.988Z,35.39
2023-09-04T14:47:10.615Z,35.33
2023-09-04T14:49:09.281Z,35.52
2023-09-04T14:51:02.916Z,35.84
2023-09-04T14:52:58.155Z,36.12
2023-09-04T14:54:53.578Z,36.21
2023-09-04T14:56:49.527Z,36.26
2023-09-04T14:58:45.034Z,34.66
2023-09-04T15:00:40.450Z,34.96
2023-09-04T15:02:36.918Z,35.41
2023-09-04T15:04:34.770Z,35.68
2023-09-04T15:06:29.897Z,36.11
2023-09-04T15:08:25.841Z,36.37
2023-09-04T15:10:21.142Z,35.96
2023-09-04T15:12:16.389Z,36.13
2023-09-04T15:14:09.628Z,36.25
2023-09-04T15:16:06.229Z,36.10
2023-09-04T15:18:08.945Z,36.12
2023-09-04T15:20:46.696Z,36.25
2023-09-04T15:23:29.012Z,36.27
2023-09-04T15:26:31.993Z,35.74
2023-09-04T15:29:06.055Z,35.69
2023-09-04T15:31:08.783Z,35.69
2023-09-04T15:33:29.047Z,35.35
2023-09-04T15:35:45.474Z,34.26
2023-09-04T15:37:52.406Z,33.97
2023-09-04T15:39:47.912Z,34.22
2023-09-04T15:41:42.996Z,33.65
2023-09-04T15:43:38.153Z,33.28
2023-09-04T15:45:33.779Z,32.86
2023-09-04T15:47:26.368Z,33.10
2023-09-04T15:49:21.556Z,33.59
2023-09-04T15:51:17.114Z,33.44
2023-09-04T15:53:12.244Z,32.80
2023-09-04T15:55:05.672Z,33.11
2023-09-04T15:57:04.062Z,33.27
2023-09-04T15:58:59.402Z,33.14
2023-09-04T16:00:55.051Z,32.97
2023-09-04T16:02:52.465Z,32.91
2023-09-04T16:04:47.664Z,32.60
2023-09-04T16:06:45.708Z,33.08
2023-09-04T16:08:40.995Z,33.08
2023-09-04T16:10:38.784Z,33.29
2023-09-04T16:12:35.381Z,33.26
2023-09-04T16:14:28.273Z,32.74
2023-09-04T16:16:23.865Z,32.94
2023-09-04T16:18:17.040Z,33.16
2023-09-04T16:20:13.448Z,33.16
2023-09-04T16:22:11.226Z,33.27
2023-09-04T16:24:10.073Z,33.05
2023-09-04T16:26:10.563Z,32.77
2023-09-04T16:28:07.506Z,32.49
2023-09-04T16:30:02.870Z,32.26
2023-09-04T16:31:57.988Z,31.83
2023-09-04T16:33:53.500Z,32.12
2023-09-04T16:35:49.132Z,32.20
2023-09-04T16:37:51.594Z,32.30
2023-09-04T16:42:45.537Z,32.62
2023-09-04T16:42:58.108Z,32.67
2023-09-04T16:45:33.430Z,32.05
2023-09-04T16:47:48.538Z,32.30
2023-09-04T16:57:14.200Z,32.62
2023-09-04T16:59:41.262Z,32.57
2023-09-04T17:02:04.310Z,32.37
2023-09-04T17:04:44.711Z,32.18
2023-09-04T17:07:06.823Z,32.17
2023-09-04T17:13:37.432Z,32.04
2023-09-04T17:15:54.562Z,31.73
2023-09-04T17:17:59.717Z,31.91
2023-09-04T17:20:13.753Z,31.80
2023-09-04T17:22:20.328Z,31.33
2023-09-04T17:24:15.982Z,30.91
2023-09-04T17:26:13.505Z,31.14
2023-09-04T17:28:18.329Z,31.34
2023-09-04T17:30:16.089Z,31.31
2023-09-04T17:32:13.969Z,31.26
2023-09-04T17:34:09.513Z,31.21
2023-09-04T17:36:08.443Z,31.14
2023-09-04T17:38:05.201Z,31.06
2023-09-04T17:40:00.986Z,30.99
2023-09-04T17:41:56.922Z,30.78
2023-09-04T17:43:52.154Z,30.70
2023-09-04T17:45:53.698Z,30.65
2023-09-04T17:47:51.647Z,30.54
2023-09-04T17:49:47.166Z,30.58
2023-09-04T17:51:42.603Z,30.58
2023-09-04T17:53:38.409Z,30.52
2023-09-04T17:55:34.311Z,30.52
2023-09-04T17:57:29.802Z,30.44
2023-09-04T17:59:24.964Z,30.38
2023-09-04T18:01:20.446Z,30.20
2023-09-04T18:03:18.334Z,30.15
2023-09-04T18:05:14.846Z,30.11
2023-09-04T18:07:10.086Z,29.98
2023-09-04T18:09:02.871Z,29.98
2023-09-04T18:11:04.668Z,29.90
2023-09-04T18:12:59.849Z,29.80
2023-09-04T18:14:54.964Z,29.68
2023-09-04T18:16:47.818Z,29.61
2023-09-04T18:18:45.715Z,29.52
2023-09-04T18:20:41.406Z,29.42
2023-09-04T18:22:36.859Z,29.38
2023-09-04T18:24:29.499Z,29.36
2023-09-04T18:26:25.399Z,29.21
2023-09-04T18:28:21.140Z,29.18
2023-09-04T18:30:17.944Z,29.21
2023-09-04T18:32:13.780Z,29.16
2023-09-04T18:34:11.623Z,29.15
2023-09-04T18:36:07.860Z,29.10
2023-09-04T18:38:03.762Z,29.02
2023-09-04T18:39:59.188Z,28.89
2023-09-04T18:41:54.656Z,28.84
2023-09-04T18:43:50.066Z,28.76
2023-09-04T18:45:48.888Z,28.65
2023-09-04T18:47:44.665Z,28.62
2023-09-04T18:49:40.435Z,28.59
2023-09-04T18:51:35.800Z,28.55
2023-09-04T18:53:35.394Z,28.47
2023-09-04T18:55:30.896Z,28.41
2023-09-04T18:57:26.100Z,28.35
2023-09-04T18:59:22.540Z,28.24
2023-09-04T19:01:17.813Z,28.23
2023-09-04T19:03:13.038Z,28.27
2023-09-04T19:05:12.144Z,28.17
2023-09-04T19:07:07.966Z,28.16
2023-09-04T19:09:03.696Z,28.14
2023-09-04T19:10:59.359Z,28.09
2023-09-04T19:12:52.187Z,28.07
2023-09-04T19:14:48.222Z,27.97
2023-09-04T19:16:41.089Z,27.93
2023-09-04T19:18:37.372Z,27.84
2023-09-04T19:20:33.436Z,27.82
2023-09-04T19:22:28.998Z,27.79
2023-09-04T19:24:21.791Z,27.74
2023-09-04T19:26:17.709Z,27.65
2023-09-04T19:28:13.624Z,27.51
2023-09-04T19:30:10.845Z,27.51
2023-09-04T19:32:07.099Z,27.44
2023-09-04T19:34:02.553Z,27.40
2023-09-04T19:36:00.973Z,27.18
2023-09-04T19:37:56.399Z,27.05
2023-09-04T19:40:04.418Z,27.00
2023-09-04T19:42:01.124Z,26.84
2023-09-04T19:43:56.549Z,26.66
2023-09-04T19:45:49.367Z,26.57
2023-09-04T19:47:45.499Z,26.30
2023-09-04T19:49:41.005Z,26.22
2023-09-04T19:51:39.187Z,26.27
2023-09-04T19:53:34.916Z,25.93
2023-09-04T19:55:32.410Z,26.00
2023-09-04T19:57:29.243Z,25.88
2023-09-04T19:59:34.694Z,25.78
2023-09-04T20:01:29.977Z,25.75
2023-09-04T20:03:23.086Z,25.84
2023-09-04T20:05:19.804Z,25.72
2023-09-04T20:07:17.761Z,25.64
2023-09-04T20:09:13.330Z,25.64
2023-09-04T20:11:09.169Z,25.64
2023-09-04T20:13:04.428Z,25.64
2023-09-04T20:14:59.781Z,25.64
2023-09-04T20:16:55.470Z,25.67
2023-09-04T20:18:50.825Z,25.70
2023-09-04T20:20:46.838Z,25.64
2023-09-04T20:22:44.628Z,25.53
2023-09-04T20:24:39.834Z,25.50
2023-09-04T20:26:48.463Z,25.31
2023-09-04T20:28:44.532Z,25.29
2023-09-04T20:30:40.610Z,25.34
2023-09-04T20:32:35.791Z,25.30
2023-09-04T20:34:31.124Z,25.17
2023-09-04T20:36:26.669Z,25.20
2023-09-04T20:38:25.029Z,25.12
2023-09-04T20:40:20.616Z,25.05
2023-09-04T20:42:16.080Z,25.08
2023-09-04T20:44:11.832Z,24.92
2023-09-04T20:46:06.961Z,24.95
2023-09-04T20:48:02.677Z,24.88
2023-09-04T20:49:55.735Z,24.73
2023-09-04T20:51:50.930Z,24.78
2023-09-04T20:53:49.122Z,24.81
2023-09-04T20:55:45.709Z,24.73
2023-09-04T20:57:38.496Z,24.64
2023-09-04T20:59:34.271Z,24.61
2023-09-04T21:01:29.851Z,24.61
2023-09-04T21:03:25.857Z,24.67
2023-09-04T21:05:21.106Z,24.66
2023-09-04T21:07:13.500Z,24.68
2023-09-04T21:09:08.882Z,24.61
2023-09-04T21:11:05.948Z,24.59
2023-09-04T21:13:13.485Z,24.49
2023-09-04T21:17:44.847Z,24.30
2023-09-04T21:19:52.797Z,24.24
2023-09-04T21:22:00.344Z,24.33
2023-09-04T21:24:09.338Z,24.25
2023-09-04T21:26:19.604Z,24.20
2023-09-04T21:28:27.505Z,24.11
2023-09-04T21:30:35.066Z,24.08
2023-09-04T21:32:43.061Z,23.99
2023-09-04T21:34:52.597Z,23.99
2023-09-04T21:37:02.855Z,24.03
2023-09-04T21:39:12.750Z,24.00
2023-09-04T21:41:27.196Z,23.99
2023-09-04T21:43:36.252Z,23.99
2023-09-04T21:45:44.271Z,23.90
2023-09-04T21:47:52.251Z,23.88
2023-09-04T21:50:02.447Z,23.72
2023-09-04T21:52:12.289Z,23.69
2023-09-04T21:54:20.136Z,23.57
2023-09-04T21:56:31.283Z,23.48
2023-09-04T21:58:42.105Z,23.46
2023-09-04T22:00:51.577Z,23.43
2023-09-04T22:03:02.524Z,23.41
2023-09-04T22:05:12.945Z,23.39
2023-09-04T22:07:24.795Z,23.42
2023-09-04T22:09:35.170Z,23.32
2023-09-04T22:11:45.928Z,23.28
2023-09-04T22:13:53.472Z,23.25
2023-09-04T22:16:01.389Z,23.13
2023-09-04T22:18:09.244Z,23.04
2023-09-04T22:20:16.708Z,23.07
2023-09-04T22:22:24.547Z,23.05
2023-09-04T22:24:32.052Z,23.02
2023-09-04T22:26:42.347Z,23.01
2023-09-04T22:28:52.836Z,23.02
2023-09-04T22:31:00.380Z,22.90
2023-09-04T22:33:08.387Z,22.77
2023-09-04T22:35:15.912Z,22.76
2023-09-04T22:37:23.518Z,22.68
2023-09-04T22:39:31.377Z,22.77
2023-09-04T22:41:38.875Z,22.72
2023-09-04T22:43:46.482Z,22.53
2023-09-04T22:45:58.000Z,22.56
2023-09-04T22:48:05.551Z,22.54
2023-09-04T22:50:13.468Z,22.49
2023-09-04T22:52:21.517Z,22.36
2023-09-04T22:54:29.047Z,22.30
2023-09-04T22:56:36.918Z,22.28
2023-09-04T22:58:44.562Z,22.24
2023-09-04T23:00:52.528Z,22.18
2023-09-04T23:03:02.783Z,22.11
2023-09-04T23:05:10.461Z,22.11
2023-09-04T23:07:18.534Z,22.14
2023-09-04T23:11:33.464Z,21.88
2023-09-04T23:13:41.521Z,21.66
2023-09-04T23:15:49.136Z,21.68
2023-09-04T23:17:57.092Z,21.71
2023-09-04T23:20:07.394Z,21.73
2023-09-04T23:22:04.117Z,21.82
2023-09-04T23:23:57.492Z,21.79
2023-09-04T23:25:52.584Z,21.69
2023-09-04T23:27:46.977Z,21.71
2023-09-04T23:29:50.405Z,21.62
2023-09-04T23:31:49.237Z,21.57
2023-09-04T23:33:52.800Z,21.45
2023-09-04T23:36:16.892Z,21.36
2023-09-04T23:38:29.895Z,21.36
2023-09-04T23:40:37.534Z,21.23
2023-09-04T23:42:47.111Z,21.09
2023-09-04T23:44:57.314Z,21.04
2023-09-04T23:46:52.418Z,21.01
2023-09-04T23:48:48.035Z,21.16
2023-09-04T23:50:44.394Z,21.04
2023-09-04T23:52:44.042Z,21.00
2023-09-04T23:54:39.386Z,20.92
2023-09-04T23:56:34.481Z,20.84
2023-09-04T23:58:29.840Z,20.89
